首页
METAR-TAF:

METAR-TAF

机场 :

合肥新桥国际机场

合肥, 中华人民共和国

纬度: 31-52N, 经度: 117-14E, 海拔: 36米

当前天气观测

该预报发布于20分钟前的18:00 UTC
风速2节,风向多变
温度 16°C
湿度 94%
气压 1010 hPa
能見度: 4000
轻雾,

METAR: ZSOF 211800Z VRB01MPS 4000 BR NSC 16/15 Q1010 NOSIG

时间: 02:20 (18:20 UTC)

预报

该预报发布于3小时和19分钟前的15:01 UTC
预报有效从21日的 18点(UTC)到 22日的 18点(UTC)
风速6节,风向东转东南
能見度: 3000
轻雾
成为
从 21日的 20点(UTC)到 21日的 21点(UTC)
能見度: 2000
成为
从 21日的 23点(UTC)到 21日的 24点(UTC)
能見度: 3000
霾,

TAF: ZSOF 211501Z 2118/2218 12003MPS 3000 BR NSC TX23/2207Z TN13/2122Z BECMG 2120/2121 2000 BECMG 2123/2124 3000 HZ

超过4000个机场的气象观测和天气预报(METAR&TAF报告)。

可查询的气象台以黄色和红色小点在地图上表示。

将鼠标移到小点上方,可查看气象台名称。

然后点击查看天气观测和预报。

如需切换地图:点击带黑十字的绿色按钮放大地图;点击带横线的绿色按钮缩小地图;或者点击绿色箭头查看邻近地区的地图。


METAR-TAF: